Time;durP1;ratioP1;P1;durP2;ratioP2;P2;SDS_P1;SDS_P2;PMS_P1;PMS_P2;Temp;Humidity;BMP_temperature;BMP_pressure;BME280_temperature;BME280_humidity;BME280_pressure;Samples;Min_cycle;Max_cycle;Signal;HPM_P1;HPM_P2
2023/01/27 00:00:38;;;;;;;28.42;9.10;;;3.00;99.90;;;-144.05;77.61;125687.94;5056667;28;20061;-78
2023/01/27 00:03:04;;;;;;;17.98;7.13;;;3.00;99.90;;;-144.05;77.01;125687.94;5039155;28;20097;-79
2023/01/27 00:05:30;;;;;;;19.92;8.15;;;3.00;99.90;;;-144.05;77.14;125687.94;5038386;28;20025;-79
2023/01/27 00:07:57;;;;;;;17.42;7.93;;;3.00;99.90;;;-144.05;76.60;125687.94;5038501;28;20028;-79
2023/01/27 00:10:25;;;;;;;18.45;8.23;;;3.10;99.90;;;-144.05;76.67;125687.94;5038300;28;20033;-79
2023/01/27 00:15:35;;;;;;;20.90;8.23;;;3.10;99.90;;;-144.05;76.44;125687.94;5056113;28;20042;-77
2023/01/27 00:18:01;;;;;;;17.27;7.60;;;3.10;99.90;;;-144.05;76.62;125687.94;5056801;28;20144;-78
2023/01/27 00:26:09;;;;;;;18.33;6.68;;;3.20;99.90;;;-144.05;76.42;125687.94;5057327;28;20040;-78
2023/01/27 00:28:38;;;;;;;24.55;7.93;;;3.10;99.90;;;-144.05;76.90;125687.94;5056389;28;20025;-79
2023/01/27 00:34:00;;;;;;;18.95;8.20;;;3.20;99.90;;;-144.05;76.81;125687.94;5056541;28;20074;-78
2023/01/27 00:36:30;;;;;;;19.75;7.65;;;3.20;99.90;;;-144.05;76.41;125687.94;5057101;28;20037;-79
2023/01/27 00:38:56;;;;;;;22.90;7.55;;;3.20;99.90;;;-144.05;76.70;125687.94;5055247;28;20032;-78
2023/01/27 00:41:22;;;;;;;23.40;7.50;;;3.20;99.90;;;-144.05;76.81;125687.94;5055692;28;20032;-77
2023/01/27 00:43:52;;;;;;;20.60;7.82;;;3.20;99.90;;;-144.05;77.05;125687.94;5037826;28;20061;-77
2023/01/27 00:46:22;;;;;;;14.95;6.78;;;3.20;99.90;;;-144.05;76.94;125687.94;5055348;28;20036;-79
2023/01/27 00:48:52;;;;;;;18.08;7.20;;;3.20;99.90;;;-144.05;76.78;125687.94;5037329;28;20292;-78
2023/01/27 00:51:19;;;;;;;21.13;7.00;;;3.30;99.90;;;-144.05;76.88;125687.94;5054942;28;20511;-77
2023/01/27 00:53:46;;;;;;;18.98;7.43;;;3.20;99.90;;;-144.05;77.49;125687.94;5055718;28;20123;-78
2023/01/27 00:56:12;;;;;;;19.90;8.40;;;3.20;99.90;;;-144.05;77.42;125687.94;5056344;28;20523;-79
2023/01/27 00:58:39;;;;;;;21.08;7.57;;;3.20;99.90;;;-144.05;77.86;125687.94;5056445;28;20095;-79
2023/01/27 01:01:15;;;;;;;17.55;8.60;;;3.20;99.90;;;-144.05;78.91;125687.94;5056088;28;20052;-78
2023/01/27 01:03:42;;;;;;;21.13;10.30;;;3.20;99.90;;;-144.05;79.43;125687.94;5038008;28;20124;-79
2023/01/27 01:06:14;;;;;;;21.83;10.70;;;3.20;99.90;;;-144.05;78.58;125687.94;5055830;28;20079;-78
2023/01/27 01:08:42;;;;;;;21.00;10.93;;;3.20;99.90;;;-144.05;79.10;125687.94;5037146;28;20488;-79
2023/01/27 01:11:16;;;;;;;25.58;11.63;;;3.20;99.90;;;-144.05;79.03;125687.94;5054948;28;20032;-78
2023/01/27 01:13:44;;;;;;;24.70;11.27;;;3.10;99.90;;;-144.05;79.62;125687.94;5056279;28;20028;-78
2023/01/27 01:16:20;;;;;;;24.95;11.55;;;3.10;99.90;;;-144.05;79.22;125687.94;5056359;28;20037;-80
2023/01/27 01:18:46;;;;;;;;;;;3.00;99.90;;;-144.05;79.23;125687.94;5039992;28;20404;-77
2023/01/27 01:21:13;;;;;;;23.25;10.30;;;3.00;99.90;;;-144.05;78.65;125687.94;5050994;28;19912;-78
2023/01/27 01:23:45;;;;;;;20.95;10.80;;;3.00;99.90;;;-144.05;78.51;125687.94;5049806;28;20040;-79
2023/01/27 01:26:14;;;;;;;23.95;10.43;;;3.00;99.90;;;-144.05;78.99;125687.94;5070207;28;20025;-80
2023/01/27 01:28:40;;;;;;;25.83;11.27;;;3.00;99.90;;;-144.05;78.82;125687.94;5049448;28;20036;-79
2023/01/27 01:31:19;;;;;;;19.35;9.95;;;2.90;99.90;;;-144.05;79.17;125687.94;5051582;28;20431;-79
2023/01/27 01:33:47;;;;;;;29.83;10.57;;;2.90;99.90;;;-144.05;78.98;125687.94;5062167;28;20033;-80
2023/01/27 01:36:20;;;;;;;24.48;10.18;;;2.90;99.90;;;-144.05;79.25;125687.94;5060812;28;20025;-79
2023/01/27 01:38:47;;;;;;;21.92;10.63;;;2.90;99.90;;;-144.05;79.52;125687.94;5059801;28;20025;-79
2023/01/27 01:41:19;;;;;;;23.80;10.65;;;2.80;99.90;;;-144.05;79.71;125687.94;5061701;28;20036;-80
2023/01/27 01:43:46;;;;;;;24.95;12.30;;;2.80;99.90;;;-144.05;80.26;125687.94;5043277;28;20055;-80
2023/01/27 01:46:12;;;;;;;28.52;13.30;;;2.80;99.90;;;-144.05;80.46;125687.94;5043018;28;20033;-79
2023/01/27 01:49:02;;;;;;;31.30;13.60;;;2.70;99.90;;;-144.05;80.58;125687.94;5061450;28;20036;-81
2023/01/27 01:51:42;;;;;;;27.75;14.00;;;2.70;99.90;;;-144.05;79.38;125687.94;5061772;28;20420;-80
2023/01/27 01:54:41;;;;;;;35.88;12.85;;;2.70;99.90;;;-144.05;79.50;125687.94;5044648;28;20044;-80
2023/01/27 01:57:25;;;;;;;31.60;14.43;;;2.60;99.90;;;-144.05;79.59;125687.94;5066254;28;20029;-79
2023/01/27 02:00:06;;;;;;;31.77;13.43;;;2.60;99.90;;;-144.05;79.47;125687.94;5048137;28;20044;-79
2023/01/27 02:02:33;;;;;;;30.00;13.93;;;2.60;99.90;;;-144.05;79.20;125687.94;5062430;28;20331;-81
2023/01/27 02:05:26;;;;;;;30.20;14.05;;;2.60;99.90;;;-144.05;79.37;125687.94;5042745;28;20082;-81
2023/01/27 02:08:16;;;;;;;29.08;13.30;;;2.50;99.90;;;-144.05;79.62;125687.94;5060200;28;20028;-78
2023/01/27 02:10:42;;;;;;;32.78;13.35;;;2.50;99.90;;;-144.05;79.43;125687.94;5059286;28;20523;-80
2023/01/27 02:13:09;;;;;;;30.95;13.40;;;2.50;99.90;;;-144.05;79.33;125687.94;5060050;28;20582;-79
2023/01/27 02:15:35;;;;;;;30.25;14.07;;;2.50;99.90;;;-144.05;79.60;125687.94;5040749;28;20033;-78
2023/01/27 02:18:02;;;;;;;30.20;13.75;;;2.50;99.90;;;-144.05;79.55;125687.94;5039630;28;20068;-80
2023/01/27 02:20:45;;;;;;;34.08;14.63;;;2.50;99.90;;;-144.05;80.38;125687.94;5057199;28;20094;-77
2023/01/27 02:23:55;;;;;;;37.78;15.55;;;2.50;99.90;;;-144.05;80.32;125687.94;5040441;28;20105;-79
2023/01/27 02:26:35;;;;;;;33.50;14.45;;;2.50;99.90;;;-144.05;80.68;125687.94;5062106;28;20031;-79
2023/01/27 02:29:13;;;;;;;36.78;14.48;;;2.50;99.90;;;-144.05;80.46;125687.94;5062206;28;20258;-80
2023/01/27 02:31:40;;;;;;;34.60;15.80;;;2.50;99.90;;;-144.05;80.49;125687.94;5044467;28;20040;-80
2023/01/27 02:34:15;;;;;;;32.60;15.57;;;2.50;99.90;;;-144.05;80.22;125687.94;5062576;28;20052;-79
2023/01/27 02:36:57;;;;;;;30.17;13.80;;;2.50;99.90;;;-144.05;80.49;125687.94;5061747;28;20068;-78
2023/01/27 02:39:39;;;;;;;30.80;14.30;;;2.50;99.90;;;-144.05;80.89;125687.94;5061935;28;20035;-78
2023/01/27 02:42:11;;;;;;;30.98;13.02;;;2.50;99.90;;;-144.05;81.16;125687.94;5044329;28;20059;-78
2023/01/27 02:44:37;;;;;;;32.05;14.15;;;2.50;99.90;;;-144.05;80.35;125687.94;5062291;28;20017;-79
2023/01/27 02:47:02;;;;;;;32.63;13.85;;;2.50;99.90;;;-144.05;80.32;125687.94;5062344;28;20078;-80
2023/01/27 02:49:28;;;;;;;30.63;14.15;;;2.50;99.90;;;-144.05;80.40;125687.94;5061599;28;20020;-79
2023/01/27 02:51:54;;;;;;;29.90;13.48;;;2.60;99.90;;;-144.05;80.74;125687.94;5061569;28;20033;-79
2023/01/27 02:54:20;;;;;;;28.88;13.52;;;2.60;99.90;;;-144.05;80.69;125687.94;5062107;28;20025;-79
2023/01/27 02:56:46;;;;;;;23.88;11.68;;;2.60;99.90;;;-144.05;80.61;125687.94;5061416;28;20029;-80
2023/01/27 02:59:11;;;;;;;26.92;12.73;;;2.60;99.90;;;-144.05;80.27;125687.94;5061489;28;20120;-79
2023/01/27 03:01:37;;;;;;;29.88;13.63;;;2.60;99.90;;;-144.05;79.83;125687.94;5042955;28;20075;-78
2023/01/27 03:04:04;;;;;;;25.17;11.57;;;2.60;99.90;;;-144.05;79.95;125687.94;5042636;28;20124;-80
2023/01/27 03:06:30;;;;;;;24.45;11.07;;;2.60;99.90;;;-144.05;79.91;125687.94;5061288;28;20017;-80
2023/01/27 03:08:56;;;;;;;25.35;10.50;;;2.60;99.90;;;-144.05;79.71;125687.94;5061392;28;20028;-77
2023/01/27 03:14:08;;;;;;;23.50;10.38;;;2.60;99.90;;;-144.05;79.37;125687.94;5062751;28;20052;-80
2023/01/27 03:19:19;;;;;;;22.58;9.82;;;2.70;99.90;;;-144.05;79.74;125687.94;5061732;28;20055;-81
2023/01/27 03:21:49;;;;;;;18.33;9.10;;;2.70;99.90;;;-144.05;79.19;125687.94;5043175;28;20108;-79
2023/01/27 03:24:15;;;;;;;18.65;9.63;;;2.70;99.90;;;-144.05;79.55;125687.94;5043315;28;20509;-80
2023/01/27 03:26:41;;;;;;;25.17;9.85;;;2.70;99.90;;;-144.05;79.15;125687.94;5061615;28;20269;-80
2023/01/27 03:31:51;;;;;;;18.95;8.75;;;2.70;99.90;;;-144.05;79.21;125687.94;5060391;28;20040;-81
2023/01/27 03:34:17;;;;;;;20.42;9.23;;;2.80;99.90;;;-144.05;79.41;125687.94;5060548;28;20033;-81
2023/01/27 03:47:43;;;;;;;25.60;10.88;;;2.70;99.90;;;-144.05;79.72;125687.94;5060717;28;20050;-79
2023/01/27 03:50:17;;;;;;;26.60;12.15;;;2.70;99.90;;;-144.05;80.20;125687.94;5042404;28;20481;-79
2023/01/27 03:53:02;;;;;;;28.27;12.52;;;2.70;99.90;;;-144.05;80.26;125687.94;5057322;28;20468;-79
2023/01/27 03:55:33;;;;;;;32.50;14.02;;;2.70;99.90;;;-144.05;80.33;125687.94;5054312;28;20024;-78
2023/01/27 03:58:13;;;;;;;27.13;13.23;;;2.70;99.90;;;-144.05;80.57;125687.94;5053750;28;20033;-78
2023/01/27 04:00:39;;;;;;;37.47;15.40;;;2.70;99.90;;;-144.05;80.45;125687.94;5054661;28;20032;-78
2023/01/27 04:08:34;;;;;;;32.17;12.75;;;2.70;99.90;;;-144.05;80.71;125687.94;5054440;28;20044;-79
2023/01/27 04:13:48;;;;;;;27.45;12.70;;;2.70;99.90;;;-144.05;81.17;125687.94;5057238;28;20040;-78
2023/01/27 04:16:16;;;;;;;27.70;13.15;;;2.70;99.90;;;-144.05;81.19;125687.94;5056999;28;20025;-78
2023/01/27 04:18:42;;;;;;;37.17;15.25;;;2.70;99.90;;;-144.05;81.42;125687.94;5058660;28;20051;-79
2023/01/27 04:21:08;;;;;;;31.70;14.30;;;2.70;99.90;;;-144.05;81.36;125687.94;5039598;28;20033;-78
2023/01/27 04:23:34;;;;;;;30.50;14.60;;;2.70;99.90;;;-144.05;81.03;125687.94;5058143;28;20040;-80
2023/01/27 04:25:59;;;;;;;31.20;14.45;;;2.60;99.90;;;-144.05;81.32;125687.94;5058279;28;20021;-79
2023/01/27 04:28:26;;;;;;;32.83;16.15;;;2.70;99.90;;;-144.05;81.77;125687.94;5057645;28;20544;-79
2023/01/27 04:30:52;;;;;;;39.28;15.30;;;2.70;99.90;;;-144.05;82.18;125687.94;5039641;28;20075;-81
2023/01/27 04:33:18;;;;;;;32.67;15.57;;;2.70;99.90;;;-144.05;82.11;125687.94;5057959;28;20024;-80
2023/01/27 04:35:45;;;;;;;39.58;16.02;;;2.70;99.90;;;-144.05;82.23;125687.94;5058019;28;20131;-79
2023/01/27 04:38:12;;;;;;;37.08;15.98;;;2.70;99.90;;;-144.05;82.57;125687.94;5057014;28;20029;-80
2023/01/27 04:40:38;;;;;;;36.30;16.13;;;2.70;99.90;;;-144.05;82.22;125687.94;5057549;28;20099;-78
2023/01/27 04:43:05;;;;;;;33.90;14.02;;;2.70;99.90;;;-144.05;82.39;125687.94;5058539;28;20052;-78
2023/01/27 04:45:31;;;;;;;49.42;21.63;;;2.70;99.90;;;-144.05;82.29;125687.94;5057951;28;20104;-80
2023/01/27 04:47:57;;;;;;;44.60;21.85;;;2.80;99.90;;;-144.05;82.39;125687.94;5039452;28;20476;-79
2023/01/27 04:50:23;;;;;;;36.30;17.05;;;2.80;99.90;;;-144.05;82.25;125687.94;5039857;28;20128;-79
2023/01/27 04:52:49;;;;;;;29.90;14.43;;;2.80;99.90;;;-144.05;82.16;125687.94;5058581;28;20033;-80
2023/01/27 04:55:15;;;;;;;32.15;14.52;;;2.80;99.90;;;-144.05;82.66;125687.94;5039475;28;20534;-77
2023/01/27 04:57:40;;;;;;;36.97;15.65;;;2.90;99.90;;;-144.05;82.76;125687.94;5057497;28;20036;-81
2023/01/27 05:00:09;;;;;;;42.75;20.02;;;2.90;99.90;;;-144.05;82.14;125687.94;5057188;28;20056;-80
2023/01/27 05:02:35;;;;;;;31.77;15.13;;;2.90;99.90;;;-144.05;82.32;125687.94;5039479;28;20486;-80
2023/01/27 05:05:03;;;;;;;55.60;28.00;;;2.90;99.90;;;-144.05;82.36;125687.94;5057650;28;20033;-78
2023/01/27 05:07:31;;;;;;;28.20;14.75;;;2.90;99.90;;;-144.05;82.14;125687.94;5056979;28;20100;-79
2023/01/27 05:09:57;;;;;;;36.33;16.00;;;2.90;99.90;;;-144.05;81.83;125687.94;5057154;28;20029;-80
2023/01/27 05:12:23;;;;;;;35.35;16.65;;;2.90;99.90;;;-144.05;82.01;125687.94;5057762;28;20037;-81
2023/01/27 05:14:49;;;;;;;32.60;15.63;;;3.00;99.90;;;-144.05;81.78;125687.94;5057305;28;20047;-79
2023/01/27 05:17:15;;;;;;;27.10;12.95;;;3.00;99.90;;;-144.05;81.85;125687.94;5057051;28;20512;-79
2023/01/27 05:19:41;;;;;;;32.20;14.27;;;3.00;99.90;;;-144.05;81.95;125687.94;5057339;28;20480;-80
2023/01/27 05:22:09;;;;;;;28.10;13.57;;;3.00;99.90;;;-144.05;81.99;125687.94;5057260;28;20037;-80
2023/01/27 05:24:39;;;;;;;26.25;13.77;;;3.00;99.90;;;-144.05;81.69;125687.94;5058155;22;20108;-80
2023/01/27 05:27:05;;;;;;;28.50;13.70;;;3.00;99.90;;;-144.05;82.27;125687.94;5053326;28;20021;-77
2023/01/27 05:29:31;;;;;;;30.27;15.30;;;3.00;99.90;;;-144.05;81.94;125687.94;5053676;28;20052;-81
2023/01/27 05:31:57;;;;;;;26.95;12.77;;;3.00;99.90;;;-144.05;81.76;125687.94;5034000;28;20039;-80
2023/01/27 05:34:23;;;;;;;23.10;12.07;;;3.00;99.90;;;-144.05;81.76;125687.94;5040511;28;20033;-80
2023/01/27 05:36:50;;;;;;;25.23;13.10;;;3.00;99.90;;;-144.05;81.55;125687.94;5033809;28;20081;-82
2023/01/27 05:39:16;;;;;;;30.13;13.00;;;3.00;99.90;;;-144.05;81.50;125687.94;5017530;28;20029;-78
2023/01/27 05:41:42;;;;;;;25.45;11.23;;;3.10;99.90;;;-144.05;81.21;125687.94;5035579;28;20029;-80
2023/01/27 05:44:11;;;;;;;21.63;10.75;;;3.10;99.90;;;-144.05;81.22;125687.94;5016460;28;20056;-79
2023/01/27 05:46:40;;;;;;;21.23;11.88;;;3.10;99.90;;;-144.05;80.84;125687.94;5016333;28;20029;-79
2023/01/27 05:49:06;;;;;;;23.30;11.25;;;3.10;99.90;;;-144.05;80.91;125687.94;5035054;28;20087;-79
2023/01/27 05:51:38;;;;;;;21.70;11.40;;;3.10;99.90;;;-144.05;81.04;125687.94;5035471;28;20220;-79
2023/01/27 05:54:05;;;;;;;27.83;13.13;;;3.10;99.90;;;-144.05;80.96;125687.94;5016359;28;20084;-78
2023/01/27 05:56:32;;;;;;;26.02;13.75;;;3.10;99.90;;;-144.05;80.49;125687.94;5033852;28;20030;-86
2023/01/27 05:58:59;;;;;;;27.25;13.93;;;3.10;99.90;;;-144.05;80.68;125687.94;5015606;28;20120;-84
2023/01/27 06:01:30;;;;;;;25.60;12.15;;;3.10;99.90;;;-144.05;80.82;125687.94;5016257;28;20030;-82
2023/01/27 06:03:57;;;;;;;24.20;12.43;;;3.10;99.90;;;-144.05;80.65;125687.94;5015858;28;20092;-83
2023/01/27 06:06:27;;;;;;;18.77;10.82;;;3.20;99.90;;;-144.05;80.25;125687.94;5033941;28;20025;-84
2023/01/27 06:08:53;;;;;;;22.30;11.73;;;3.20;99.90;;;-144.05;80.29;125687.94;5016307;28;20036;-84
2023/01/27 06:11:23;;;;;;;22.08;11.55;;;3.20;99.90;;;-144.05;80.29;125687.94;5017300;28;20025;-83
2023/01/27 06:13:51;;;;;;;20.15;12.15;;;3.20;99.90;;;-144.05;80.37;125687.94;5017366;28;20033;-85
2023/01/27 06:16:20;;;;;;;16.50;10.15;;;3.20;99.90;;;-144.05;80.71;125687.94;5035183;28;20030;-83
2023/01/27 06:18:48;;;;;;;22.95;12.20;;;3.20;99.90;;;-144.05;80.76;125687.94;5016565;28;20030;-82
2023/01/27 06:21:16;;;;;;;19.48;10.75;;;3.20;99.90;;;-144.05;80.35;125687.94;5016924;28;20049;-83
2023/01/27 06:23:42;;;;;;;18.40;10.90;;;3.20;99.90;;;-144.05;80.44;125687.94;5017164;28;20030;-81
2023/01/27 06:26:16;;;;;;;21.45;9.95;;;3.30;99.90;;;-144.05;80.10;125687.94;5034083;28;20504;-83
2023/01/27 06:28:43;;;;;;;18.20;10.32;;;3.20;99.90;;;-144.05;79.81;125687.94;5032269;28;20442;-82
2023/01/27 06:31:15;;;;;;;21.77;10.82;;;3.20;99.90;;;-144.05;79.55;125687.94;5016022;28;20029;-85
2023/01/27 06:33:41;;;;;;;20.02;10.65;;;3.20;99.90;;;-144.05;79.54;125687.94;5016676;28;20033;-83
2023/01/27 06:36:12;;;;;;;19.20;10.82;;;3.30;99.90;;;-144.05;79.84;125687.94;5016680;28;20029;-84
2023/01/27 06:38:39;;;;;;;17.17;10.32;;;3.30;99.90;;;-144.05;79.83;125687.94;5016571;28;20026;-84
2023/01/27 06:41:05;;;;;;;17.98;10.20;;;3.20;99.90;;;-144.05;79.72;125687.94;5016438;28;20030;-83
2023/01/27 06:43:31;;;;;;;19.25;10.70;;;3.30;99.90;;;-144.05;79.42;125687.94;5016768;28;20055;-82
2023/01/27 06:45:57;;;;;;;18.52;10.20;;;3.30;99.90;;;-144.05;79.43;125687.94;5015978;28;20481;-81
2023/01/27 06:48:26;;;;;;;16.45;10.73;;;3.30;99.90;;;-144.05;79.36;125687.94;5018032;28;20034;-84
2023/01/27 06:50:53;;;;;;;17.25;10.75;;;3.30;99.90;;;-144.05;79.70;125687.94;5049294;28;20034;-82
2023/01/27 06:53:19;;;;;;;18.40;10.93;;;3.30;99.90;;;-144.05;79.80;125687.94;5036025;28;20064;-82
2023/01/27 06:55:46;;;;;;;20.95;11.77;;;3.40;99.90;;;-144.05;80.12;125687.94;5015826;28;20107;-83
2023/01/27 06:58:14;;;;;;;19.77;11.15;;;3.40;99.90;;;-144.05;80.47;125687.94;5033390;28;20055;-84
2023/01/27 07:00:41;;;;;;;16.92;11.20;;;3.40;99.90;;;-144.05;80.05;125687.94;5019110;28;20033;-82
2023/01/27 07:03:12;;;;;;;20.73;11.18;;;3.40;99.90;;;-144.05;80.09;125687.94;5024145;28;20029;-81
2023/01/27 07:05:40;;;;;;;18.73;10.50;;;3.30;99.90;;;-144.05;79.92;125687.94;5016634;28;20026;-82
2023/01/27 07:08:07;;;;;;;17.25;9.88;;;3.40;99.90;;;-144.05;80.08;125687.94;5016532;28;20030;-82
2023/01/27 07:10:33;;;;;;;16.42;10.15;;;3.40;99.90;;;-144.05;80.11;125687.94;5019822;28;20468;-83
2023/01/27 07:13:12;;;;;;;15.82;9.15;;;3.40;99.90;;;-144.05;80.49;125687.94;5020922;28;20030;-82
2023/01/27 07:15:38;;;;;;;18.08;10.23;;;3.40;99.90;;;-144.05;80.56;125687.94;5019767;28;20032;-82
2023/01/27 07:18:05;;;;;;;16.35;10.25;;;3.40;99.90;;;-144.05;80.82;125687.94;5019167;28;20025;-80
2023/01/27 07:20:32;;;;;;;14.43;8.23;;;3.40;99.90;;;-144.05;81.05;125687.94;5019102;28;20086;-80
2023/01/27 07:23:04;;;;;;;17.15;10.27;;;3.30;99.90;;;-144.05;81.63;125687.94;5018831;28;20025;-82
2023/01/27 07:25:33;;;;;;;16.27;9.82;;;3.30;99.90;;;-144.05;81.74;125687.94;5037201;28;20033;-82
2023/01/27 07:28:02;;;;;;;17.58;9.93;;;3.40;99.90;;;-144.05;81.13;125687.94;5020104;28;20551;-81
2023/01/27 07:30:28;;;;;;;20.05;9.45;;;3.30;99.90;;;-144.05;81.02;125687.94;5035697;28;20037;-84
2023/01/27 07:32:54;;;;;;;17.17;10.13;;;3.40;99.90;;;-144.05;81.47;125687.94;5018598;28;20068;-84
2023/01/27 07:35:22;;;;;;;16.67;10.10;;;3.40;99.90;;;-144.05;81.65;125687.94;5018948;28;20038;-80
2023/01/27 07:37:48;;;;;;;17.52;10.05;;;3.40;99.90;;;-144.05;81.30;125687.94;5036134;28;20028;-82
2023/01/27 07:40:14;;;;;;;14.52;9.23;;;3.40;99.90;;;-144.05;81.19;125687.94;5018721;28;20442;-82
2023/01/27 07:42:40;;;;;;;17.85;10.13;;;3.40;99.90;;;-144.05;80.96;125687.94;5019210;28;20076;-82
2023/01/27 07:45:08;;;;;;;19.15;9.88;;;3.40;99.90;;;-144.05;80.94;125687.94;5019742;28;20446;-82
2023/01/27 07:47:34;;;;;;;17.42;10.05;;;3.40;99.90;;;-144.05;81.09;125687.94;5018671;28;20030;-83
2023/01/27 07:50:00;;;;;;;19.55;10.07;;;3.40;99.90;;;-144.05;81.27;125687.94;5018961;28;20036;-80
2023/01/27 07:52:26;;;;;;;16.38;9.00;;;3.40;99.90;;;-144.05;81.44;125687.94;5019961;28;20041;-80
2023/01/27 07:54:51;;;;;;;15.57;9.30;;;3.50;99.90;;;-144.05;81.36;125687.94;5020409;28;20456;-82
2023/01/27 07:57:17;;;;;;;14.75;9.35;;;3.50;99.90;;;-144.05;80.87;125687.94;5020911;28;20030;-82
2023/01/27 07:59:43;;;;;;;18.27;9.10;;;3.50;99.90;;;-144.05;80.87;125687.94;5020408;28;20029;-83
2023/01/27 08:02:10;;;;;;;14.77;9.15;;;3.50;99.90;;;-144.05;81.33;125687.94;5019553;28;20029;-82
2023/01/27 08:04:36;;;;;;;16.27;9.43;;;3.50;99.90;;;-144.05;80.95;125687.94;5019737;28;20120;-84
2023/01/27 08:07:02;;;;;;;16.20;8.90;;;3.50;99.90;;;-144.05;81.14;125687.94;5019707;28;20045;-82
2023/01/27 08:09:27;;;;;;;14.85;8.63;;;3.50;99.90;;;-144.05;81.11;125687.94;5038006;28;20449;-85
2023/01/27 08:11:53;;;;;;;14.55;8.90;;;3.60;99.90;;;-144.05;81.05;125687.94;5019848;28;20033;-84
2023/01/27 08:14:19;;;;;;;16.58;8.75;;;3.60;99.90;;;-144.05;80.89;125687.94;5037272;28;20466;-85
2023/01/27 08:16:45;;;;;;;13.75;8.80;;;3.60;99.90;;;-144.05;80.39;125687.94;5033208;28;20036;-82
2023/01/27 08:19:11;;;;;;;13.18;8.27;;;3.60;99.90;;;-144.05;80.12;125687.94;5049464;28;20066;-83
2023/01/27 08:21:37;;;;;;;12.63;7.93;;;3.70;99.90;;;-144.05;80.51;125687.94;5028659;28;20035;-82
2023/01/27 08:24:03;;;;;;;14.05;8.75;;;3.70;99.90;;;-144.05;80.67;125687.94;5044329;28;20030;-81
2023/01/27 08:26:29;;;;;;;13.88;8.63;;;3.70;99.90;;;-144.05;80.57;125687.94;5036267;28;20025;-83
2023/01/27 08:28:55;;;;;;;14.85;8.60;;;3.70;99.90;;;-144.05;80.50;125687.94;5018348;28;20559;-80
2023/01/27 08:31:20;;;;;;;16.85;8.60;;;3.70;99.90;;;-144.05;80.59;125687.94;5019532;28;20127;-82
2023/01/27 08:33:52;;;;;;;14.93;8.27;;;3.70;99.90;;;-144.05;80.42;125687.94;5018665;28;20033;-86
2023/01/27 08:36:21;;;;;;;12.43;7.88;;;3.70;99.90;;;-144.05;80.73;125687.94;5034759;28;20041;-83
2023/01/27 08:38:50;;;;;;;14.35;8.10;;;3.80;99.90;;;-144.05;80.14;125687.94;5018625;28;20034;-81
2023/01/27 08:41:22;;;;;;;11.95;8.02;;;3.80;99.90;;;-144.05;79.91;125687.94;5036396;28;20030;-83
2023/01/27 08:43:49;;;;;;;11.98;7.95;;;3.80;99.90;;;-144.05;79.97;125687.94;5035571;28;20047;-83
2023/01/27 08:46:16;;;;;;;12.82;7.63;;;3.90;99.90;;;-144.05;80.21;125687.94;5017207;28;20477;-83
2023/01/27 08:48:42;;;;;;;14.38;8.70;;;3.90;99.90;;;-144.05;79.79;125687.94;5017748;28;20036;-79
2023/01/27 08:51:13;;;;;;;11.85;7.80;;;4.00;99.90;;;-144.05;79.62;125687.94;5017911;28;20071;-81
2023/01/27 08:53:40;;;;;;;13.25;7.05;;;4.00;99.90;;;-144.05;79.50;125687.94;5034504;28;20033;-82
2023/01/27 08:56:12;;;;;;;12.55;7.57;;;4.00;99.90;;;-144.05;79.90;125687.94;5016871;28;20061;-83
2023/01/27 08:58:39;;;;;;;11.60;7.05;;;4.00;99.90;;;-144.05;79.85;125687.94;5033966;28;20547;-80
2023/01/27 09:01:07;;;;;;;13.60;8.50;;;4.00;99.90;;;-144.05;79.24;125687.94;5016221;28;20036;-81
2023/01/27 09:03:35;;;;;;;10.60;7.10;;;4.00;99.90;;;-144.05;79.45;125687.94;5016950;28;20021;-83
2023/01/27 09:06:04;;;;;;;10.55;7.22;;;4.00;99.90;;;-144.05;79.34;125687.94;5016794;28;20120;-83
2023/01/27 09:08:30;;;;;;;13.35;7.28;;;4.00;99.90;;;-144.05;79.34;125687.94;5033844;28;20052;-83
2023/01/27 09:10:57;;;;;;;11.60;7.65;;;4.00;99.90;;;-144.05;79.33;125687.94;5034309;28;20025;-81
2023/01/27 09:13:23;;;;;;;17.35;8.50;;;4.00;99.90;;;-144.05;79.54;125687.94;5038147;28;20108;-84
2023/01/27 09:15:52;;;;;;;13.30;8.13;;;4.00;99.90;;;-144.05;79.43;125687.94;5035052;28;20037;-80
2023/01/27 09:18:19;;;;;;;10.48;7.30;;;4.00;99.90;;;-144.05;79.40;125687.94;5024767;28;20041;-83
2023/01/27 09:20:45;;;;;;;14.73;7.70;;;4.00;99.90;;;-144.05;79.54;125687.94;5021062;28;20044;-82
2023/01/27 09:23:11;;;;;;;13.10;7.05;;;4.00;99.90;;;-144.05;79.59;125687.94;5018219;28;20056;-81
2023/01/27 09:25:37;;;;;;;12.13;7.95;;;4.00;99.90;;;-144.05;79.53;125687.94;5036184;28;20029;-82
2023/01/27 09:28:03;;;;;;;10.48;7.30;;;4.00;99.90;;;-144.05;79.35;125687.94;5017947;28;20032;-81
2023/01/27 09:30:29;;;;;;;13.65;7.05;;;4.00;99.90;;;-144.05;79.36;125687.94;5036190;28;20025;-81
2023/01/27 09:33:00;;;;;;;10.65;6.65;;;4.10;99.90;;;-144.05;79.50;125687.94;5017431;28;20063;-81
2023/01/27 09:35:44;;;;;;;11.13;6.93;;;4.00;99.90;;;-144.05;79.66;125687.94;5035080;28;20112;-83
2023/01/27 09:38:19;;;;;;;9.70;7.13;;;4.00;99.90;;;-144.05;79.68;125687.94;5033819;28;20033;-82
2023/01/27 09:41:18;;;;;;;10.43;6.80;;;4.10;99.90;;;-144.05;78.87;125687.94;5017662;28;20094;-81
2023/01/27 09:44:06;;;;;;;11.85;6.53;;;4.10;99.90;;;-144.05;79.31;125687.94;5034338;28;20079;-83
2023/01/27 09:47:07;;;;;;;12.57;7.65;;;4.10;99.90;;;-144.05;79.84;125687.94;5035257;28;20045;-85
2023/01/27 09:50:00;;;;;;;11.02;6.75;;;4.10;99.90;;;-144.05;79.21;125687.94;5016613;28;20039;-81
2023/01/27 09:52:57;;;;;;;10.50;6.82;;;4.10;99.90;;;-144.05;79.66;125687.94;5035141;28;20029;-84
2023/01/27 09:55:43;;;;;;;11.43;6.28;;;4.20;99.90;;;-144.05;78.95;125687.94;5035191;28;20504;-83
2023/01/27 09:58:53;;;;;;;13.10;7.70;;;4.20;99.90;;;-144.05;79.75;125687.94;5016417;28;20034;-82
2023/01/27 10:01:45;;;;;;;11.30;7.00;;;4.20;99.90;;;-144.05;79.08;125687.94;5016857;28;20045;-84
2023/01/27 10:05:07;;;;;;;11.95;8.02;;;4.20;99.90;;;-144.05;79.48;125687.94;5034783;28;20026;-81
2023/01/27 10:08:41;;;;;;;13.77;7.60;;;4.20;99.90;;;-144.05;79.74;125687.94;4978692;28;20033;-82
2023/01/27 10:11:46;;;;;;;13.68;8.10;;;4.20;99.90;;;-144.05;79.60;125687.94;5024342;28;20472;-81
2023/01/27 10:15:07;;;;;;;15.77;8.23;;;4.20;99.90;;;-144.05;79.71;125687.94;5016981;28;20027;-82
2023/01/27 10:18:25;;;;;;;13.38;8.40;;;4.20;99.90;;;-144.05;78.90;125687.94;5016645;28;20033;-84
2023/01/27 10:21:29;;;;;;;15.43;8.65;;;4.20;99.90;;;-144.05;79.18;125687.94;5016542;28;20034;-81
2023/01/27 10:24:47;;;;;;;12.88;8.63;;;4.30;99.90;;;-144.05;78.87;125687.94;5034000;28;20103;-80
2023/01/27 10:27:24;;;;;;;16.83;9.10;;;4.30;99.90;;;-144.05;78.94;125687.94;5016453;28;20025;-83
2023/01/27 10:30:11;;;;;;;16.15;9.13;;;4.30;99.90;;;-144.05;79.23;125687.94;5016483;28;20029;-84
2023/01/27 10:33:14;;;;;;;16.40;9.50;;;4.30;99.90;;;-144.05;79.15;125687.94;5016340;28;20033;-82
2023/01/27 10:36:44;;;;;;;14.65;8.73;;;4.30;99.90;;;-144.05;79.37;125687.94;5034357;28;20408;-81
2023/01/27 10:39:59;;;;;;;14.68;9.40;;;4.30;99.90;;;-144.05;79.47;125687.94;5013305;28;20099;-83
2023/01/27 10:43:07;;;;;;;15.00;9.50;;;4.30;99.90;;;-144.05;79.07;125687.94;5016043;28;20029;-82
2023/01/27 10:45:54;;;;;;;12.63;8.75;;;4.30;99.90;;;-144.05;79.32;125687.94;5037577;28;20026;-81
2023/01/27 10:48:39;;;;;;;15.60;8.25;;;4.40;99.90;;;-144.05;79.13;125687.94;5019767;28;20108;-81
2023/01/27 10:51:27;;;;;;;14.30;8.30;;;4.30;99.90;;;-144.05;79.57;125687.94;5037425;28;20159;-80
2023/01/27 10:54:31;;;;;;;12.20;7.88;;;4.30;99.90;;;-144.05;80.02;125687.94;5020175;28;20044;-79